sensor_id;sensor_type;location;lat;lon;timestamp;pressure;altitude;pressure_sealevel;temperature;humidity
25232;BME280;13176;51.140;6.290;2023-02-19T00:01:43;101082.16;;;12.52;100.00
25232;BME280;13176;51.140;6.290;2023-02-19T00:04:18;101096.00;;;12.60;100.00
25232;BME280;13176;51.140;6.290;2023-02-19T00:06:47;101154.63;;;13.06;100.00
25232;BME280;13176;51.140;6.290;2023-02-19T00:09:15;101167.88;;;12.97;100.00
25232;BME280;13176;51.140;6.290;2023-02-19T00:11:45;101125.44;;;12.74;100.00
25232;BME280;13176;51.140;6.290;2023-02-19T00:14:18;101140.19;;;12.78;100.00
25232;BME280;13176;51.140;6.290;2023-02-19T00:16:46;101149.53;;;12.97;100.00
25232;BME280;13176;51.140;6.290;2023-02-19T00:19:15;100939.88;;;12.04;100.00
25232;BME280;13176;51.140;6.290;2023-02-19T00:21:42;101102.34;;;13.00;100.00
25232;BME280;13176;51.140;6.290;2023-02-19T00:24:10;101069.94;;;12.51;100.00
25232;BME280;13176;51.140;6.290;2023-02-19T00:26:38;101146.03;;;12.98;100.00
25232;BME280;13176;51.140;6.290;2023-02-19T00:29:05;101109.41;;;12.95;100.00
25232;BME280;13176;51.140;6.290;2023-02-19T00:31:33;101087.06;;;12.73;100.00
25232;BME280;13176;51.140;6.290;2023-02-19T00:34:04;101104.59;;;12.68;100.00
25232;BME280;13176;51.140;6.290;2023-02-19T00:36:32;101125.06;;;12.98;100.00
25232;BME280;13176;51.140;6.290;2023-02-19T00:39:01;101149.09;;;13.23;100.00
25232;BME280;13176;51.140;6.290;2023-02-19T00:41:27;101138.13;;;13.00;100.00
25232;BME280;13176;51.140;6.290;2023-02-19T00:44:01;101116.31;;;12.99;100.00
25232;BME280;13176;51.140;6.290;2023-02-19T00:46:34;101124.94;;;13.07;100.00
25232;BME280;13176;51.140;6.290;2023-02-19T00:49:01;101129.41;;;12.99;100.00
25232;BME280;13176;51.140;6.290;2023-02-19T00:51:30;101130.97;;;13.11;100.00
25232;BME280;13176;51.140;6.290;2023-02-19T00:53:57;101074.69;;;12.81;100.00
25232;BME280;13176;51.140;6.290;2023-02-19T00:56:24;101010.91;;;12.36;100.00
25232;BME280;13176;51.140;6.290;2023-02-19T00:58:50;101118.16;;;12.94;100.00
25232;BME280;13176;51.140;6.290;2023-02-19T01:01:17;101120.63;;;13.02;100.00
25232;BME280;13176;51.140;6.290;2023-02-19T01:03:44;101129.03;;;13.20;100.00
25232;BME280;13176;51.140;6.290;2023-02-19T01:06:15;101086.94;;;12.79;100.00
25232;BME280;13176;51.140;6.290;2023-02-19T01:08:42;101122.91;;;13.21;100.00
25232;BME280;13176;51.140;6.290;2023-02-19T01:11:10;101121.28;;;13.14;100.00
25232;BME280;13176;51.140;6.290;2023-02-19T01:13:38;101129.13;;;13.16;99.14
25232;BME280;13176;51.140;6.290;2023-02-19T01:16:17;101138.78;;;13.12;100.00
25232;BME280;13176;51.140;6.290;2023-02-19T01:18:45;101122.13;;;13.16;99.56
25232;BME280;13176;51.140;6.290;2023-02-19T01:21:21;101112.59;;;13.12;99.48
25232;BME280;13176;51.140;6.290;2023-02-19T01:23:49;101117.94;;;13.06;99.87
25232;BME280;13176;51.140;6.290;2023-02-19T01:26:20;101054.34;;;12.98;97.32
25232;BME280;13176;51.140;6.290;2023-02-19T01:28:47;101124.44;;;13.34;97.58
25232;BME280;13176;51.140;6.290;2023-02-19T01:31:16;101126.31;;;13.26;97.86
25232;BME280;13176;51.140;6.290;2023-02-19T01:33:45;101060.50;;;12.42;100.00
25232;BME280;13176;51.140;6.290;2023-02-19T01:36:12;101002.16;;;12.37;99.32
25232;BME280;13176;51.140;6.290;2023-02-19T01:38:39;101150.44;;;13.46;97.48
25232;BME280;13176;51.140;6.290;2023-02-19T01:41:09;100939.50;;;12.28;97.11
25232;BME280;13176;51.140;6.290;2023-02-19T01:46:40;101041.56;;;12.77;98.07
25232;BME280;13176;51.140;6.290;2023-02-19T01:49:13;101117.13;;;13.04;99.42
25232;BME280;13176;51.140;6.290;2023-02-19T01:51:45;101109.16;;;13.10;98.09
25232;BME280;13176;51.140;6.290;2023-02-19T01:54:15;101140.25;;;13.28;97.38
25232;BME280;13176;51.140;6.290;2023-02-19T01:56:44;101101.06;;;13.22;97.22
25232;BME280;13176;51.140;6.290;2023-02-19T01:59:13;101014.28;;;12.41;98.66
25232;BME280;13176;51.140;6.290;2023-02-19T02:01:39;100972.72;;;12.23;98.72
25232;BME280;13176;51.140;6.290;2023-02-19T02:04:07;101154.50;;;13.12;99.98
25232;BME280;13176;51.140;6.290;2023-02-19T02:06:42;101060.41;;;12.48;98.97
25232;BME280;13176;51.140;6.290;2023-02-19T02:09:15;101127.13;;;12.75;99.71
25232;BME280;13176;51.140;6.290;2023-02-19T02:12:00;101152.56;;;13.23;99.06
25232;BME280;13176;51.140;6.290;2023-02-19T02:14:29;101043.44;;;12.72;97.74
25232;BME280;13176;51.140;6.290;2023-02-19T02:22:41;101060.88;;;12.72;97.21
25232;BME280;13176;51.140;6.290;2023-02-19T02:30:46;101149.13;;;13.21;97.83
25232;BME280;13176;51.140;6.290;2023-02-19T02:33:20;101091.72;;;13.09;96.71
25232;BME280;13176;51.140;6.290;2023-02-19T02:36:11;101055.56;;;12.76;96.87
25232;BME280;13176;51.140;6.290;2023-02-19T02:38:41;101035.03;;;12.54;96.36
25232;BME280;13176;51.140;6.290;2023-02-19T02:41:08;101114.16;;;13.22;95.35
25232;BME280;13176;51.140;6.290;2023-02-19T02:43:35;101124.22;;;13.45;94.84
25232;BME280;13176;51.140;6.290;2023-02-19T02:46:02;101067.84;;;12.74;96.49
25232;BME280;13176;51.140;6.290;2023-02-19T02:48:39;101153.16;;;13.39;95.43
25232;BME280;13176;51.140;6.290;2023-02-19T02:51:26;101147.28;;;13.26;96.43
25232;BME280;13176;51.140;6.290;2023-02-19T02:56:49;101106.91;;;12.86;96.42
25232;BME280;13176;51.140;6.290;2023-02-19T02:59:19;101152.31;;;13.38;95.09
25232;BME280;13176;51.140;6.290;2023-02-19T03:01:54;101147.38;;;13.20;94.99
25232;BME280;13176;51.140;6.290;2023-02-19T03:04:59;101126.53;;;13.14;94.54
25232;BME280;13176;51.140;6.290;2023-02-19T03:10:37;101135.59;;;12.95;95.19
25232;BME280;13176;51.140;6.290;2023-02-19T03:13:07;101168.81;;;12.93;96.08
25232;BME280;13176;51.140;6.290;2023-02-19T03:15:59;101173.69;;;13.14;94.96
25232;BME280;13176;51.140;6.290;2023-02-19T03:18:49;101164.84;;;13.21;93.79
25232;BME280;13176;51.140;6.290;2023-02-19T03:21:38;101167.97;;;12.90;95.49
25232;BME280;13176;51.140;6.290;2023-02-19T03:24:09;101183.97;;;13.26;94.64
25232;BME280;13176;51.140;6.290;2023-02-19T03:26:57;101143.47;;;12.94;95.01
25232;BME280;13176;51.140;6.290;2023-02-19T03:29:29;101162.84;;;13.35;92.78
25232;BME280;13176;51.140;6.290;2023-02-19T03:32:17;101181.75;;;13.52;91.96
25232;BME280;13176;51.140;6.290;2023-02-19T03:34:53;101164.78;;;13.24;93.51
25232;BME280;13176;51.140;6.290;2023-02-19T03:37:25;101186.16;;;13.50;92.66
25232;BME280;13176;51.140;6.290;2023-02-19T03:39:54;101162.38;;;13.12;94.50
25232;BME280;13176;51.140;6.290;2023-02-19T03:42:33;101188.13;;;13.39;93.64
25232;BME280;13176;51.140;6.290;2023-02-19T03:45:26;101182.34;;;13.19;95.32
25232;BME280;13176;51.140;6.290;2023-02-19T03:48:21;101171.94;;;13.13;95.87
25232;BME280;13176;51.140;6.290;2023-02-19T03:51:12;101176.91;;;13.31;94.94
25232;BME280;13176;51.140;6.290;2023-02-19T03:53:51;101201.53;;;13.21;95.90
25232;BME280;13176;51.140;6.290;2023-02-19T03:56:33;101169.97;;;13.27;94.64
25232;BME280;13176;51.140;6.290;2023-02-19T04:01:45;101210.41;;;13.11;98.01
25232;BME280;13176;51.140;6.290;2023-02-19T04:07:01;101089.69;;;12.15;99.98
25232;BME280;13176;51.140;6.290;2023-02-19T04:09:41;101216.09;;;12.81;99.57
25232;BME280;13176;51.140;6.290;2023-02-19T04:12:10;101219.56;;;12.83;100.00
25232;BME280;13176;51.140;6.290;2023-02-19T04:14:46;101212.25;;;12.46;100.00
25232;BME280;13176;51.140;6.290;2023-02-19T04:17:21;101136.16;;;11.98;100.00
25232;BME280;13176;51.140;6.290;2023-02-19T04:19:50;101162.00;;;12.19;100.00
25232;BME280;13176;51.140;6.290;2023-02-19T04:22:18;101226.97;;;12.54;100.00
25232;BME280;13176;51.140;6.290;2023-02-19T04:24:48;101207.91;;;12.44;100.00
25232;BME280;13176;51.140;6.290;2023-02-19T04:27:15;101213.25;;;12.38;100.00
25232;BME280;13176;51.140;6.290;2023-02-19T04:29:42;101125.56;;;12.05;99.97
25232;BME280;13176;51.140;6.290;2023-02-19T04:32:12;101066.97;;;11.55;100.00
25232;BME280;13176;51.140;6.290;2023-02-19T04:34:39;101256.44;;;12.68;100.00
25232;BME280;13176;51.140;6.290;2023-02-19T04:37:08;101175.78;;;12.33;100.00
25232;BME280;13176;51.140;6.290;2023-02-19T04:39:35;101195.91;;;12.28;100.00
25232;BME280;13176;51.140;6.290;2023-02-19T04:42:01;101235.50;;;12.68;100.00
25232;BME280;13176;51.140;6.290;2023-02-19T04:44:28;101159.13;;;12.38;98.83
25232;BME280;13176;51.140;6.290;2023-02-19T04:46:54;101243.47;;;12.58;99.87
25232;BME280;13176;51.140;6.290;2023-02-19T04:49:21;101168.22;;;12.12;99.85
25232;BME280;13176;51.140;6.290;2023-02-19T04:51:47;101152.44;;;12.18;97.93
25232;BME280;13176;51.140;6.290;2023-02-19T04:54:14;101260.91;;;12.60;99.68
25232;BME280;13176;51.140;6.290;2023-02-19T04:56:40;101142.38;;;11.88;99.26
25232;BME280;13176;51.140;6.290;2023-02-19T04:59:07;101255.94;;;12.41;100.00
25232;BME280;13176;51.140;6.290;2023-02-19T05:01:33;101246.34;;;12.39;99.81
25232;BME280;13176;51.140;6.290;2023-02-19T05:04:00;101277.47;;;12.62;99.55
25232;BME280;13176;51.140;6.290;2023-02-19T05:06:26;101183.97;;;12.06;100.00
25232;BME280;13176;51.140;6.290;2023-02-19T05:08:53;101184.06;;;12.00;100.00
25232;BME280;13176;51.140;6.290;2023-02-19T05:11:19;101274.19;;;12.46;99.53
25232;BME280;13176;51.140;6.290;2023-02-19T05:13:46;101239.47;;;12.30;99.14
25232;BME280;13176;51.140;6.290;2023-02-19T05:16:13;101285.41;;;12.56;99.38
25232;BME280;13176;51.140;6.290;2023-02-19T05:18:42;101309.09;;;12.45;99.85
25232;BME280;13176;51.140;6.290;2023-02-19T05:21:09;101269.91;;;12.39;100.00
25232;BME280;13176;51.140;6.290;2023-02-19T05:23:39;101217.25;;;11.95;100.00
25232;BME280;13176;51.140;6.290;2023-02-19T05:26:07;101105.53;;;11.28;99.47
25232;BME280;13176;51.140;6.290;2023-02-19T05:28:34;101270.91;;;12.29;100.00
25232;BME280;13176;51.140;6.290;2023-02-19T05:31:06;101303.94;;;12.37;100.00
25232;BME280;13176;51.140;6.290;2023-02-19T05:33:33;101298.75;;;12.36;100.00
25232;BME280;13176;51.140;6.290;2023-02-19T05:36:07;101317.75;;;12.51;100.00
25232;BME280;13176;51.140;6.290;2023-02-19T05:38:34;101179.34;;;11.55;100.00
25232;BME280;13176;51.140;6.290;2023-02-19T05:41:15;101255.38;;;12.14;99.94
25232;BME280;13176;51.140;6.290;2023-02-19T05:43:46;101290.31;;;12.07;100.00
25232;BME280;13176;51.140;6.290;2023-02-19T05:46:15;101339.69;;;12.40;100.00
25232;BME280;13176;51.140;6.290;2023-02-19T05:48:44;101293.59;;;12.30;99.71
25232;BME280;13176;51.140;6.290;2023-02-19T05:51:13;101291.22;;;12.07;100.00
25232;BME280;13176;51.140;6.290;2023-02-19T05:53:40;101180.91;;;11.68;98.71
25232;BME280;13176;51.140;6.290;2023-02-19T05:56:43;101209.66;;;11.69;99.96
25232;BME280;13176;51.140;6.290;2023-02-19T05:59:17;101209.00;;;11.45;100.00
25232;BME280;13176;51.140;6.290;2023-02-19T06:01:44;101340.69;;;12.30;100.00
25232;BME280;13176;51.140;6.290;2023-02-19T06:04:11;101361.41;;;12.48;100.00
25232;BME280;13176;51.140;6.290;2023-02-19T06:06:38;101269.56;;;11.95;100.00
25232;BME280;13176;51.140;6.290;2023-02-19T06:09:08;101354.41;;;12.49;99.86
25232;BME280;13176;51.140;6.290;2023-02-19T06:11:36;101303.19;;;12.28;99.32
25232;BME280;13176;51.140;6.290;2023-02-19T06:14:04;101230.38;;;11.89;98.29
25232;BME280;13176;51.140;6.290;2023-02-19T06:16:31;101203.78;;;11.45;99.16
25232;BME280;13176;51.140;6.290;2023-02-19T06:19:03;101365.06;;;12.35;100.00
25232;BME280;13176;51.140;6.290;2023-02-19T06:21:32;101196.59;;;11.68;98.85
25232;BME280;13176;51.140;6.290;2023-02-19T06:24:04;101295.75;;;11.89;100.00
25232;BME280;13176;51.140;6.290;2023-02-19T06:26:32;101281.97;;;11.72;100.00
25232;BME280;13176;51.140;6.290;2023-02-19T06:29:00;101283.63;;;11.82;100.00
25232;BME280;13176;51.140;6.290;2023-02-19T06:31:27;101229.22;;;11.24;100.00
25232;BME280;13176;51.140;6.290;2023-02-19T06:33:54;101371.44;;;12.05;100.00
25232;BME280;13176;51.140;6.290;2023-02-19T06:36:21;101282.13;;;11.51;100.00
25232;BME280;13176;51.140;6.290;2023-02-19T06:38:48;101368.81;;;12.04;100.00
25232;BME280;13176;51.140;6.290;2023-02-19T06:41:18;101261.16;;;11.63;100.00
25232;BME280;13176;51.140;6.290;2023-02-19T06:43:44;101325.16;;;12.12;100.00
25232;BME280;13176;51.140;6.290;2023-02-19T06:46:13;101282.91;;;11.65;100.00
25232;BME280;13176;51.140;6.290;2023-02-19T06:48:43;101275.19;;;11.47;100.00
25232;BME280;13176;51.140;6.290;2023-02-19T06:51:15;101207.50;;;11.17;100.00
25232;BME280;13176;51.140;6.290;2023-02-19T06:53:44;101386.13;;;12.20;100.00
25232;BME280;13176;51.140;6.290;2023-02-19T06:56:21;101410.47;;;12.31;100.00
25232;BME280;13176;51.140;6.290;2023-02-19T06:58:48;101389.41;;;12.40;99.32
25232;BME280;13176;51.140;6.290;2023-02-19T07:01:15;101341.94;;;11.88;100.00
25232;BME280;13176;51.140;6.290;2023-02-19T07:03:42;101312.56;;;11.53;100.00
25232;BME280;13176;51.140;6.290;2023-02-19T07:06:08;101349.84;;;11.84;100.00
25232;BME280;13176;51.140;6.290;2023-02-19T07:08:35;101341.13;;;11.82;99.90
25232;BME280;13176;51.140;6.290;2023-02-19T07:11:01;101286.53;;;11.44;100.00
25232;BME280;13176;51.140;6.290;2023-02-19T07:13:31;101303.91;;;11.50;99.95
25232;BME280;13176;51.140;6.290;2023-02-19T07:16:00;101443.56;;;12.35;99.35
25232;BME280;13176;51.140;6.290;2023-02-19T07:18:48;101423.41;;;12.44;98.52
25232;BME280;13176;51.140;6.290;2023-02-19T07:21:15;101308.31;;;11.42;99.59
25232;BME280;13176;51.140;6.290;2023-02-19T07:23:43;101368.78;;;12.10;97.45
25232;BME280;13176;51.140;6.290;2023-02-19T07:26:14;101342.91;;;11.77;98.13
25232;BME280;13176;51.140;6.290;2023-02-19T07:28:44;101435.19;;;11.94;100.00
25232;BME280;13176;51.140;6.290;2023-02-19T07:31:12;101345.56;;;11.75;97.90
25232;BME280;13176;51.140;6.290;2023-02-19T07:33:44;101459.94;;;12.54;97.38
25232;BME280;13176;51.140;6.290;2023-02-19T07:36:13;101393.41;;;11.85;98.38
25232;BME280;13176;51.140;6.290;2023-02-19T07:38:41;101475.03;;;12.26;98.34
25232;BME280;13176;51.140;6.290;2023-02-19T07:41:08;101347.34;;;11.66;98.16
25232;BME280;13176;51.140;6.290;2023-02-19T07:43:36;101392.47;;;11.90;97.24
25232;BME280;13176;51.140;6.290;2023-02-19T07:46:11;101446.22;;;12.30;96.63
25232;BME280;13176;51.140;6.290;2023-02-19T07:48:40;101497.53;;;12.48;97.92
25232;BME280;13176;51.140;6.290;2023-02-19T07:51:11;101413.13;;;12.23;95.52
25232;BME280;13176;51.140;6.290;2023-02-19T07:53:40;101395.03;;;11.99;95.99
25232;BME280;13176;51.140;6.290;2023-02-19T07:56:07;101384.50;;;12.07;95.40
25232;BME280;13176;51.140;6.290;2023-02-19T07:58:34;101482.66;;;12.52;95.88
25232;BME280;13176;51.140;6.290;2023-02-19T08:01:13;101387.31;;;11.83;96.00
25232;BME280;13176;51.140;6.290;2023-02-19T08:03:42;101329.22;;;11.42;96.75
25232;BME280;13176;51.140;6.290;2023-02-19T08:06:10;101447.22;;;12.13;95.99
25232;BME280;13176;51.140;6.290;2023-02-19T08:08:38;101444.69;;;12.05;96.43
25232;BME280;13176;51.140;6.290;2023-02-19T08:11:05;101417.50;;;12.21;94.69
25232;BME280;13176;51.140;6.290;2023-02-19T08:13:51;101329.16;;;11.55;94.82
25232;BME280;13176;51.140;6.290;2023-02-19T08:16:25;101424.41;;;12.30;94.07
25232;BME280;13176;51.140;6.290;2023-02-19T08:19:11;101433.00;;;12.41;93.49
25232;BME280;13176;51.140;6.290;2023-02-19T08:21:38;101349.59;;;12.08;92.64
25232;BME280;13176;51.140;6.290;2023-02-19T08:24:35;101372.25;;;12.12;92.44
25232;BME280;13176;51.140;6.290;2023-02-19T08:27:15;101414.91;;;12.20;92.87
25232;BME280;13176;51.140;6.290;2023-02-19T08:29:42;101507.59;;;12.89;92.49
25232;BME280;13176;51.140;6.290;2023-02-19T08:32:08;101559.91;;;13.01;93.36
25232;BME280;13176;51.140;6.290;2023-02-19T08:34:36;101523.41;;;12.80;92.80
25232;BME280;13176;51.140;6.290;2023-02-19T08:37:02;101487.03;;;12.50;92.31
25232;BME280;13176;51.140;6.290;2023-02-19T08:39:29;101427.16;;;12.15;92.45
25232;BME280;13176;51.140;6.290;2023-02-19T08:41:56;101473.06;;;12.51;92.30
25232;BME280;13176;51.140;6.290;2023-02-19T08:44:22;101422.03;;;12.04;92.85
25232;BME280;13176;51.140;6.290;2023-02-19T08:46:48;101457.66;;;12.19;93.43
25232;BME280;13176;51.140;6.290;2023-02-19T08:49:24;101370.78;;;11.81;92.76
25232;BME280;13176;51.140;6.290;2023-02-19T08:52:10;101483.78;;;12.25;94.65
25232;BME280;13176;51.140;6.290;2023-02-19T08:54:52;101575.13;;;12.56;95.65
25232;BME280;13176;51.140;6.290;2023-02-19T08:57:24;101501.28;;;12.18;95.98
25232;BME280;13176;51.140;6.290;2023-02-19T08:59:51;101519.81;;;11.84;98.36
25232;BME280;13176;51.140;6.290;2023-02-19T09:02:18;101494.44;;;12.01;97.08
25232;BME280;13176;51.140;6.290;2023-02-19T09:04:44;101537.81;;;12.32;97.13
25232;BME280;13176;51.140;6.290;2023-02-19T09:07:11;101456.34;;;11.52;98.90
25232;BME280;13176;51.140;6.290;2023-02-19T09:09:38;101409.47;;;11.22;99.56
25232;BME280;13176;51.140;6.290;2023-02-19T09:12:10;101504.09;;;11.85;99.18
25232;BME280;13176;51.140;6.290;2023-02-19T09:14:37;101576.31;;;12.06;100.00
25232;BME280;13176;51.140;6.290;2023-02-19T09:17:05;101559.66;;;12.20;99.43
25232;BME280;13176;51.140;6.290;2023-02-19T09:19:32;101510.19;;;11.89;98.18
25232;BME280;13176;51.140;6.290;2023-02-19T09:21:59;101601.50;;;12.26;99.50
25232;BME280;13176;51.140;6.290;2023-02-19T09:24:26;101552.84;;;12.00;98.78
25232;BME280;13176;51.140;6.290;2023-02-19T09:26:53;101590.06;;;12.41;98.03
25232;BME280;13176;51.140;6.290;2023-02-19T09:29:23;101505.00;;;11.83;98.47
25232;BME280;13176;51.140;6.290;2023-02-19T09:31:50;101589.50;;;11.94;99.67
25232;BME280;13176;51.140;6.290;2023-02-19T09:34:16;101494.75;;;11.32;100.00
25232;BME280;13176;51.140;6.290;2023-02-19T09:36:43;101539.81;;;11.91;98.81
25232;BME280;13176;51.140;6.290;2023-02-19T09:39:10;101570.38;;;11.81;100.00
25232;BME280;13176;51.140;6.290;2023-02-19T09:41:47;101485.88;;;11.69;98.96
25232;BME280;13176;51.140;6.290;2023-02-19T09:44:22;101586.56;;;12.42;97.46
25232;BME280;13176;51.140;6.290;2023-02-19T09:46:52;101571.97;;;12.05;98.37
25232;BME280;13176;51.140;6.290;2023-02-19T09:49:27;101620.56;;;12.48;97.93
25232;BME280;13176;51.140;6.290;2023-02-19T09:51:57;101534.44;;;12.12;97.37
25232;BME280;13176;51.140;6.290;2023-02-19T09:54:27;101632.69;;;12.59;96.72
25232;BME280;13176;51.140;6.290;2023-02-19T09:56:56;101621.28;;;12.70;96.03
25232;BME280;13176;51.140;6.290;2023-02-19T09:59:28;101439.78;;;11.59;96.61
25232;BME280;13176;51.140;6.290;2023-02-19T10:02:10;101507.44;;;12.08;96.28
25232;BME280;13176;51.140;6.290;2023-02-19T10:05:09;101567.31;;;12.48;95.29
25232;BME280;13176;51.140;6.290;2023-02-19T10:08:42;101595.34;;;12.35;96.26
25232;BME280;13176;51.140;6.290;2023-02-19T10:11:11;101631.72;;;12.73;94.82
25232;BME280;13176;51.140;6.290;2023-02-19T10:25:13;101654.28;;;12.95;93.36
25232;BME280;13176;51.140;6.290;2023-02-19T10:37:45;101560.72;;;11.97;94.78
25232;BME280;13176;51.140;6.290;2023-02-19T10:40:25;101513.75;;;11.76;93.98
25232;BME280;13176;51.140;6.290;2023-02-19T10:45:57;101520.88;;;11.29;98.07
25232;BME280;13176;51.140;6.290;2023-02-19T10:48:48;101711.19;;;12.68;97.08
25232;BME280;13176;51.140;6.290;2023-02-19T10:51:17;101674.56;;;12.62;95.27
25232;BME280;13176;51.140;6.290;2023-02-19T10:53:49;101530.31;;;11.75;94.82
25232;BME280;13176;51.140;6.290;2023-02-19T10:56:24;101634.50;;;12.49;95.55
25232;BME280;13176;51.140;6.290;2023-02-19T10:58:52;101616.16;;;12.52;94.05
25232;BME280;13176;51.140;6.290;2023-02-19T11:01:23;101703.16;;;12.99;93.28
25232;BME280;13176;51.140;6.290;2023-02-19T11:04:13;101649.22;;;12.64;94.03
25232;BME280;13176;51.140;6.290;2023-02-19T11:06:41;101685.75;;;12.83;93.81
25232;BME280;13176;51.140;6.290;2023-02-19T11:09:23;101748.28;;;13.37;93.38
25232;BME280;13176;51.140;6.290;2023-02-19T11:11:52;101697.66;;;13.29;92.65
25232;BME280;13176;51.140;6.290;2023-02-19T11:14:22;101657.94;;;12.73;93.31
25232;BME280;13176;51.140;6.290;2023-02-19T11:16:52;101720.47;;;13.15;93.22
25232;BME280;13176;51.140;6.290;2023-02-19T11:21:59;101721.91;;;13.54;91.21
25232;BME280;13176;51.140;6.290;2023-02-19T11:24:31;101639.22;;;13.98;89.33
25232;BME280;13176;51.140;6.290;2023-02-19T11:27:04;101617.13;;;14.15;85.23
25232;BME280;13176;51.140;6.290;2023-02-19T11:29:31;101725.78;;;14.72;84.94
25232;BME280;13176;51.140;6.290;2023-02-19T11:34:49;101569.13;;;13.37;83.18
25232;BME280;13176;51.140;6.290;2023-02-19T11:37:21;101547.63;;;13.06;84.17
25232;BME280;13176;51.140;6.290;2023-02-19T11:39:51;101714.88;;;13.57;86.19
25232;BME280;13176;51.140;6.290;2023-02-19T11:42:28;101700.69;;;13.79;86.18
25232;BME280;13176;51.140;6.290;2023-02-19T11:53:34;101685.91;;;13.67;84.61
25232;BME280;13176;51.140;6.290;2023-02-19T11:56:13;101709.22;;;13.96;84.16
25232;BME280;13176;51.140;6.290;2023-02-19T11:58:56;101680.19;;;13.28;86.54
25232;BME280;13176;51.140;6.290;2023-02-19T12:08:01;101703.81;;;14.14;86.00
25232;BME280;13176;51.140;6.290;2023-02-19T12:11:03;101708.16;;;14.12;86.01
25232;BME280;13176;51.140;6.290;2023-02-19T12:13:54;101683.50;;;14.26;84.50
25232;BME280;13176;51.140;6.290;2023-02-19T12:27:37;101716.25;;;13.91;84.17
25232;BME280;13176;51.140;6.290;2023-02-19T12:33:25;101708.88;;;13.46;83.98
25232;BME280;13176;51.140;6.290;2023-02-19T12:36:28;101733.94;;;13.77;83.69
25232;BME280;13176;51.140;6.290;2023-02-19T12:45:03;101619.13;;;13.17;83.33
25232;BME280;13176;51.140;6.290;2023-02-19T12:47:38;101623.09;;;13.57;81.72
25232;BME280;13176;51.140;6.290;2023-02-19T12:50:17;101737.25;;;13.91;81.30
25232;BME280;13176;51.140;6.290;2023-02-19T12:52:48;101676.28;;;13.71;80.63
25232;BME280;13176;51.140;6.290;2023-02-19T12:55:20;101719.91;;;13.81;81.60
25232;BME280;13176;51.140;6.290;2023-02-19T12:57:49;101687.19;;;13.26;82.42
25232;BME280;13176;51.140;6.290;2023-02-19T13:00:30;101665.19;;;13.45;82.88
25232;BME280;13176;51.140;6.290;2023-02-19T13:03:04;101704.31;;;13.66;83.59
25232;BME280;13176;51.140;6.290;2023-02-19T13:05:39;101732.00;;;13.92;82.91
25232;BME280;13176;51.140;6.290;2023-02-19T13:08:15;101716.41;;;13.79;82.58
25232;BME280;13176;51.140;6.290;2023-02-19T13:10:55;101678.63;;;13.09;82.59
25232;BME280;13176;51.140;6.290;2023-02-19T13:16:06;101713.16;;;13.55;85.28
25232;BME280;13176;51.140;6.290;2023-02-19T13:18:45;101660.25;;;13.11;86.97
25232;BME280;13176;51.140;6.290;2023-02-19T13:21:18;101531.94;;;12.00;88.82
25232;BME280;13176;51.140;6.290;2023-02-19T13:24:19;101523.41;;;11.65;91.33
25232;BME280;13176;51.140;6.290;2023-02-19T13:38:03;101614.56;;;12.31;93.34
25232;BME280;13176;51.140;6.290;2023-02-19T13:40:40;101626.97;;;11.99;93.19
25232;BME280;13176;51.140;6.290;2023-02-19T13:43:23;101769.53;;;12.98;92.79
25232;BME280;13176;51.140;6.290;2023-02-19T13:46:10;101680.72;;;12.53;91.92
25232;BME280;13176;51.140;6.290;2023-02-19T13:48:41;101654.59;;;12.45;92.22
25232;BME280;13176;51.140;6.290;2023-02-19T13:54:13;101770.47;;;12.87;92.73
25232;BME280;13176;51.140;6.290;2023-02-19T13:56:45;101757.63;;;12.38;93.54
25232;BME280;13176;51.140;6.290;2023-02-19T13:59:23;101755.63;;;12.78;92.85
25232;BME280;13176;51.140;6.290;2023-02-19T14:04:52;101780.03;;;12.95;92.32
25232;BME280;13176;51.140;6.290;2023-02-19T14:09:52;101709.47;;;12.68;92.24
25232;BME280;13176;51.140;6.290;2023-02-19T14:12:20;101709.53;;;12.55;92.43
25232;BME280;13176;51.140;6.290;2023-02-19T14:14:51;101777.50;;;12.76;93.10
25232;BME280;13176;51.140;6.290;2023-02-19T14:17:45;101712.13;;;12.56;91.26
25232;BME280;13176;51.140;6.290;2023-02-19T14:31:01;101662.63;;;12.12;91.98
25232;BME280;13176;51.140;6.290;2023-02-19T14:33:38;101700.84;;;12.46;90.80
25232;BME280;13176;51.140;6.290;2023-02-19T14:39:05;101743.56;;;12.53;92.50
25232;BME280;13176;51.140;6.290;2023-02-19T14:41:38;101732.31;;;12.32;91.88
25232;BME280;13176;51.140;6.290;2023-02-19T14:44:13;101801.00;;;12.95;91.00
25232;BME280;13176;51.140;6.290;2023-02-19T14:49:48;101827.16;;;13.04;90.98
25232;BME280;13176;51.140;6.290;2023-02-19T14:52:41;101723.44;;;12.60;90.22
25232;BME280;13176;51.140;6.290;2023-02-19T14:55:25;101815.59;;;13.32;89.02
25232;BME280;13176;51.140;6.290;2023-02-19T14:57:53;101753.84;;;12.86;89.42
25232;BME280;13176;51.140;6.290;2023-02-19T15:00:27;101801.81;;;13.06;89.54
25232;BME280;13176;51.140;6.290;2023-02-19T15:02:54;101761.78;;;12.73;90.36
25232;BME280;13176;51.140;6.290;2023-02-19T15:05:28;101826.16;;;13.23;89.72
25232;BME280;13176;51.140;6.290;2023-02-19T15:08:02;101622.59;;;11.96;88.94
25232;BME280;13176;51.140;6.290;2023-02-19T15:10:34;101845.31;;;13.30;88.73
25232;BME280;13176;51.140;6.290;2023-02-19T15:13:04;101627.00;;;11.84;89.94
25232;BME280;13176;51.140;6.290;2023-02-19T15:15:35;101721.66;;;12.72;88.51
25232;BME280;13176;51.140;6.290;2023-02-19T15:18:03;101625.13;;;12.16;89.05
25232;BME280;13176;51.140;6.290;2023-02-19T15:20:33;101802.63;;;13.11;89.72
25232;BME280;13176;51.140;6.290;2023-02-19T15:23:04;101714.72;;;12.61;88.87
25232;BME280;13176;51.140;6.290;2023-02-19T15:25:37;101681.56;;;12.60;89.07